createdAt,value
2019-05-13T00:00:58.414Z,99.90
2019-05-13T00:03:25.844Z,99.90
2019-05-13T00:05:53.731Z,99.90
2019-05-13T00:08:21.833Z,99.90
2019-05-13T00:10:50.680Z,99.90
2019-05-13T00:13:18.180Z,99.90
2019-05-13T00:15:45.654Z,99.90
2019-05-13T00:18:14.389Z,99.90
2019-05-13T00:20:44.353Z,99.90
2019-05-13T00:23:11.524Z,99.90
2019-05-13T00:25:39.049Z,99.90
2019-05-13T00:28:06.484Z,99.90
2019-05-13T00:30:34.473Z,99.90
2019-05-13T00:33:03.701Z,99.90
2019-05-13T00:35:33.578Z,99.90
2019-05-13T00:38:00.688Z,99.90
2019-05-13T00:40:28.106Z,99.90
2019-05-13T00:42:55.537Z,99.90
2019-05-13T00:45:24.483Z,99.90
2019-05-13T00:47:53.629Z,99.90
2019-05-13T00:50:21.295Z,99.90
2019-05-13T00:52:50.158Z,99.90
2019-05-13T00:55:17.685Z,99.90
2019-05-13T00:57:45.117Z,99.90
2019-05-13T01:00:14.090Z,99.90
2019-05-13T01:02:44.343Z,99.90
2019-05-13T01:05:11.510Z,99.90
2019-05-13T01:07:39.082Z,99.90
2019-05-13T01:10:06.504Z,99.90
2019-05-13T01:12:34.593Z,99.90
2019-05-13T01:15:04.201Z,99.90
2019-05-13T01:17:33.939Z,99.90
2019-05-13T01:20:00.960Z,99.90
2019-05-13T01:22:28.406Z,99.90
2019-05-13T01:24:55.936Z,99.90
2019-05-13T01:27:23.948Z,99.90
2019-05-13T01:29:53.434Z,99.90
2019-05-13T01:32:20.814Z,99.90
2019-05-13T01:34:48.309Z,99.90
2019-05-13T01:37:15.876Z,99.90
2019-05-13T01:39:43.746Z,99.90
2019-05-13T01:42:13.649Z,99.90
2019-05-13T01:44:40.655Z,99.90
2019-05-13T01:47:08.099Z,99.90
2019-05-13T01:49:35.538Z,99.90
2019-05-13T01:52:03.827Z,99.90
2019-05-13T01:54:33.934Z,99.90
2019-05-13T01:57:04.117Z,99.90
2019-05-13T01:59:31.220Z,99.90
2019-05-13T02:01:58.912Z,99.90
2019-05-13T02:04:26.483Z,99.90
2019-05-13T02:06:54.357Z,99.90
2019-05-13T02:09:24.327Z,99.90
2019-05-13T02:11:53.833Z,99.90
2019-05-13T02:14:21.048Z,99.90
2019-05-13T02:16:48.580Z,99.90
2019-05-13T02:19:16.116Z,99.90
2019-05-13T02:21:44.020Z,99.90
2019-05-13T02:24:11.582Z,99.90
2019-05-13T02:26:39.030Z,99.90
2019-05-13T02:29:06.453Z,99.90
2019-05-13T02:31:45.947Z,99.90
2019-05-13T02:34:03.322Z,99.90
2019-05-13T02:36:32.935Z,99.90
2019-05-13T02:39:02.575Z,99.90
2019-05-13T02:41:29.626Z,99.90
2019-05-13T02:43:57.058Z,99.90
2019-05-13T02:46:24.586Z,99.90
2019-05-13T02:48:52.769Z,99.90
2019-05-13T02:51:23.017Z,99.90
2019-05-13T02:53:52.407Z,99.90
2019-05-13T02:56:22.406Z,99.90
2019-05-13T02:58:48.404Z,99.90
2019-05-13T03:01:15.918Z,99.90
2019-05-13T03:03:44.416Z,99.90
2019-05-13T03:06:13.341Z,99.90
2019-05-13T03:08:49.217Z,99.90
2019-05-13T03:11:12.643Z,99.90
2019-05-13T03:13:42.504Z,99.90
2019-05-13T03:16:27.033Z,99.90
2019-05-13T03:18:54.567Z,99.90
2019-05-13T03:21:23.150Z,99.90
2019-05-13T03:23:52.584Z,99.90
2019-05-13T03:26:23.191Z,99.90
2019-05-13T03:28:52.279Z,99.90
2019-05-13T03:31:18.894Z,99.90
2019-05-13T03:33:47.626Z,99.90
2019-05-13T03:36:17.399Z,99.90
2019-05-13T03:38:59.886Z,99.90
2019-05-13T03:41:16.004Z,99.90
2019-05-13T03:43:43.927Z,99.90
2019-05-13T03:46:12.328Z,99.90
2019-05-13T03:48:42.902Z,99.90
2019-05-13T03:51:09.234Z,99.90
2019-05-13T03:53:36.798Z,99.90
2019-05-13T03:56:04.644Z,99.90
2019-05-13T03:58:32.634Z,99.90
2019-05-13T04:01:02.751Z,99.90
2019-05-13T04:03:32.890Z,99.90
2019-05-13T04:06:03.204Z,99.90
2019-05-13T04:08:32.476Z,99.90
2019-05-13T04:10:59.125Z,99.90
2019-05-13T04:13:27.676Z,99.90
2019-05-13T04:15:55.282Z,99.90
2019-05-13T04:18:23.614Z,99.90
2019-05-13T04:20:53.045Z,99.90
2019-05-13T04:23:23.335Z,99.90
2019-05-13T04:25:53.377Z,99.90
2019-05-13T04:28:22.100Z,99.90
2019-05-13T04:30:48.776Z,99.90
2019-05-13T04:33:16.199Z,99.90
2019-05-13T04:35:43.623Z,99.90
2019-05-13T04:38:13.045Z,99.90
2019-05-13T04:40:42.410Z,99.90
2019-05-13T04:43:12.776Z,99.90
2019-05-13T04:45:42.843Z,99.90
2019-05-13T04:48:08.756Z,99.90
2019-05-13T04:50:38.095Z,99.90
2019-05-13T04:53:05.912Z,99.90
2019-05-13T04:55:33.542Z,99.90
2019-05-13T04:58:03.421Z,99.90
2019-05-13T05:01:26.264Z,99.90
2019-05-13T05:04:10.158Z,99.90
2019-05-13T05:06:46.985Z,99.90
2019-05-13T05:10:16.787Z,99.90
2019-05-13T05:13:14.831Z,99.90
2019-05-13T05:16:09.452Z,99.90
2019-05-13T05:19:12.655Z,99.90
2019-05-13T05:21:57.773Z,99.90
2019-05-13T05:25:11.651Z,99.90
2019-05-13T05:27:51.525Z,99.90
2019-05-13T05:30:55.028Z,99.90
2019-05-13T05:33:56.790Z,99.90
2019-05-13T05:37:01.361Z,99.90
2019-05-13T05:39:28.933Z,99.90
2019-05-13T05:41:57.371Z,99.90
2019-05-13T05:44:26.588Z,99.90
2019-05-13T05:46:55.733Z,99.90
2019-05-13T05:49:25.335Z,99.90
2019-05-13T05:52:01.547Z,99.90
2019-05-13T05:54:31.864Z,99.90
2019-05-13T05:57:01.305Z,99.90
2019-05-13T05:59:31.832Z,99.90
2019-05-13T06:02:01.669Z,99.90
2019-05-13T06:04:28.681Z,99.90
2019-05-13T06:06:56.653Z,99.90
2019-05-13T06:09:24.583Z,99.90
2019-05-13T06:11:52.647Z,99.90
2019-05-13T06:14:21.953Z,99.90
2019-05-13T06:16:51.852Z,99.90
2019-05-13T06:19:19.524Z,99.90
2019-05-13T06:21:47.257Z,99.90
2019-05-13T06:24:15.133Z,99.90
2019-05-13T06:26:42.859Z,99.90
2019-05-13T06:29:11.618Z,99.90
2019-05-13T06:31:41.734Z,99.90
2019-05-13T06:34:08.653Z,99.90
2019-05-13T06:36:38.150Z,99.90
2019-05-13T06:39:07.229Z,99.90
2019-05-13T06:41:34.774Z,99.90
2019-05-13T06:44:02.713Z,99.90
2019-05-13T06:46:32.327Z,99.90
2019-05-13T06:48:59.658Z,99.90
2019-05-13T06:51:27.209Z,99.90
2019-05-13T06:53:54.761Z,99.90
2019-05-13T06:56:22.290Z,99.90
2019-05-13T06:58:51.817Z,99.90
2019-05-13T07:01:21.535Z,99.90
2019-05-13T07:03:48.445Z,99.90
2019-05-13T07:06:21.722Z,99.90
2019-05-13T07:08:49.276Z,99.90
2019-05-13T07:11:20.988Z,99.90
2019-05-13T07:13:46.081Z,99.90
2019-05-13T07:16:14.408Z,99.90
2019-05-13T07:18:41.859Z,99.90
2019-05-13T07:21:11.837Z,99.90
2019-05-13T07:23:38.856Z,99.90
2019-05-13T07:26:07.387Z,99.90
2019-05-13T07:28:34.871Z,99.90
2019-05-13T07:31:02.430Z,99.90
2019-05-13T07:33:32.057Z,99.90
2019-05-13T07:36:02.859Z,99.90
2019-05-13T07:38:32.371Z,99.90
2019-05-13T07:41:02.518Z,99.90
2019-05-13T07:43:32.034Z,99.90
2019-05-13T07:46:01.891Z,99.90
2019-05-13T07:48:31.592Z,99.90
2019-05-13T07:51:00.413Z,99.90
2019-05-13T07:53:28.406Z,99.90
2019-05-13T07:55:55.870Z,99.90
2019-05-13T07:58:23.650Z,99.90
2019-05-13T08:00:51.981Z,99.90
2019-05-13T08:03:21.430Z,99.90
2019-05-13T08:05:51.171Z,99.90
2019-05-13T08:08:18.412Z,99.90
2019-05-13T08:10:46.057Z,99.90
2019-05-13T08:13:13.569Z,99.90
2019-05-13T08:15:42.035Z,99.90
2019-05-13T08:18:12.272Z,99.90
2019-05-13T08:20:41.757Z,99.90
2019-05-13T08:23:11.526Z,99.90
2019-05-13T08:25:37.898Z,99.90
2019-05-13T08:28:05.331Z,99.90
2019-05-13T08:30:33.000Z,99.90
2019-05-13T08:33:01.818Z,99.90
2019-05-13T08:35:31.488Z,99.90
2019-05-13T08:38:01.196Z,99.90
2019-05-13T08:40:28.211Z,99.90
2019-05-13T08:42:55.625Z,99.90
2019-05-13T08:45:23.060Z,99.90
2019-05-13T08:47:51.233Z,99.90
2019-05-13T08:50:21.851Z,99.90
2019-05-13T08:52:48.534Z,99.90
2019-05-13T08:55:16.718Z,99.90
2019-05-13T08:57:44.327Z,99.90
2019-05-13T09:00:13.763Z,99.90
2019-05-13T09:02:41.989Z,99.90
2019-05-13T09:05:12.003Z,99.90
2019-05-13T09:07:41.272Z,99.90
2019-05-13T09:10:09.152Z,99.90
2019-05-13T09:12:40.180Z,99.90
2019-05-13T09:15:06.885Z,99.90
2019-05-13T09:17:34.448Z,99.90
2019-05-13T09:22:31.857Z,99.90
2019-05-13T09:25:01.884Z,99.90
2019-05-13T09:27:31.858Z,99.90
2019-05-13T09:30:02.411Z,99.90
2019-05-13T09:32:29.010Z,99.90
2019-05-13T09:34:56.542Z,98.50
2019-05-13T09:37:25.000Z,98.70
2019-05-13T09:39:52.520Z,98.20
2019-05-13T09:42:21.668Z,98.50
2019-05-13T09:44:49.323Z,97.90
2019-05-13T09:47:18.030Z,97.10
2019-05-13T09:49:45.563Z,97.20
2019-05-13T09:52:13.110Z,95.90
2019-05-13T09:54:42.468Z,96.30
2019-05-13T09:57:12.091Z,92.60
2019-05-13T09:59:41.979Z,94.80
2019-05-13T10:02:12.049Z,93.20
2019-05-13T10:04:38.652Z,93.30
2019-05-13T10:07:07.183Z,92.00
2019-05-13T10:09:34.699Z,90.20
2019-05-13T10:12:03.051Z,91.40
2019-05-13T10:14:32.641Z,91.20
2019-05-13T10:17:06.399Z,90.00
2019-05-13T10:19:32.888Z,89.40
2019-05-13T10:22:00.475Z,86.90
2019-05-13T10:24:27.976Z,85.80
2019-05-13T10:26:55.650Z,86.40
2019-05-13T10:29:23.221Z,84.40
2019-05-13T10:31:51.545Z,84.20
2019-05-13T10:34:19.035Z,84.10
2019-05-13T10:36:46.684Z,84.10
2019-05-13T10:39:14.211Z,83.90
2019-05-13T10:41:42.466Z,80.80
2019-05-13T10:44:12.055Z,81.50
2019-05-13T10:46:42.054Z,78.40
2019-05-13T10:49:09.167Z,75.70
2019-05-13T10:51:36.727Z,76.90
2019-05-13T10:54:04.494Z,77.90
2019-05-13T10:56:34.021Z,78.90
2019-05-13T10:59:02.933Z,75.50
2019-05-13T11:01:32.778Z,77.20
2019-05-13T11:04:02.520Z,76.30
2019-05-13T11:06:32.607Z,73.00
2019-05-13T11:09:02.019Z,72.80
2019-05-13T11:11:32.056Z,74.10
2019-05-13T11:14:08.256Z,69.40
2019-05-13T11:16:28.483Z,70.40
2019-05-13T11:18:58.767Z,70.70
2019-05-13T11:21:26.301Z,68.70
2019-05-13T11:23:53.831Z,71.00
2019-05-13T11:26:21.951Z,69.10
2019-05-13T11:28:52.200Z,69.20
2019-05-13T11:31:19.166Z,70.70
2019-05-13T11:33:46.673Z,69.60
2019-05-13T11:36:19.183Z,71.60
2019-05-13T11:38:45.795Z,69.70
2019-05-13T11:41:13.298Z,67.30
2019-05-13T11:43:41.493Z,70.00
2019-05-13T11:46:09.034Z,63.60
2019-05-13T11:48:36.597Z,63.50
2019-05-13T11:51:04.432Z,61.80
2019-05-13T11:53:34.521Z,63.20
2019-05-13T11:56:04.332Z,67.10
2019-05-13T11:58:32.486Z,66.30
2019-05-13T12:01:02.589Z,64.20
2019-05-13T12:03:32.293Z,66.50
2019-05-13T12:06:02.037Z,63.60
2019-05-13T12:08:28.687Z,60.10
2019-05-13T12:10:56.216Z,61.00
2019-05-13T12:13:24.446Z,61.60
2019-05-13T12:15:54.478Z,57.90
2019-05-13T12:18:23.926Z,56.90
2019-05-13T12:20:53.977Z,58.60
2019-05-13T12:23:20.841Z,61.60
2019-05-13T12:25:48.353Z,63.00
2019-05-13T12:28:15.898Z,62.50
2019-05-13T12:30:43.544Z,61.30
2019-05-13T12:33:13.464Z,59.70
2019-05-13T12:35:40.341Z,59.90
2019-05-13T12:38:07.881Z,58.50
2019-05-13T12:40:35.426Z,59.00
2019-05-13T12:43:02.985Z,57.60
2019-05-13T12:45:30.652Z,57.60
2019-05-13T12:47:58.351Z,57.60
2019-05-13T12:50:27.584Z,57.60
2019-05-13T12:52:55.004Z,58.50
2019-05-13T12:55:22.561Z,57.10
2019-05-13T12:57:53.367Z,56.50
2019-05-13T13:00:23.729Z,56.40
2019-05-13T13:02:52.028Z,57.10
2019-05-13T13:05:21.308Z,57.80
2019-05-13T13:08:16.047Z,57.60
2019-05-13T13:10:24.567Z,56.70
2019-05-13T13:12:54.674Z,55.40
2019-05-13T13:15:37.043Z,55.50
2019-05-13T13:17:54.025Z,54.20
2019-05-13T13:20:24.271Z,54.60
2019-05-13T13:22:49.583Z,54.40
2019-05-13T13:25:17.214Z,54.10
2019-05-13T13:28:08.923Z,53.50
2019-05-13T13:30:16.540Z,55.80
2019-05-13T13:32:45.603Z,53.20
2019-05-13T13:35:14.879Z,52.70
2019-05-13T13:37:52.840Z,52.60
2019-05-13T13:40:26.074Z,53.50
2019-05-13T13:42:48.557Z,53.50
2019-05-13T13:45:16.194Z,53.60
2019-05-13T13:47:45.374Z,51.90
2019-05-13T13:50:14.953Z,50.80
2019-05-13T13:52:45.691Z,53.20
2019-05-13T13:55:15.931Z,52.90
2019-05-13T13:57:44.849Z,52.20
2019-05-13T14:00:38.164Z,51.60
2019-05-13T14:02:43.100Z,52.50
2019-05-13T14:05:12.583Z,53.00
2019-05-13T14:07:00.434Z,99.90
2019-05-13T14:07:42.281Z,52.30
2019-05-13T14:10:11.603Z,52.70
2019-05-13T14:12:41.555Z,50.50
2019-05-13T14:15:08.961Z,49.70
2019-05-13T14:17:41.324Z,52.60
2019-05-13T14:20:08.946Z,51.60
2019-05-13T14:22:36.556Z,52.10
2019-05-13T14:25:04.418Z,52.50
2019-05-13T14:27:33.000Z,52.30
2019-05-13T14:30:01.401Z,52.90
2019-05-13T14:32:31.961Z,53.70
2019-05-13T14:34:58.946Z,53.60
2019-05-13T14:37:31.925Z,53.00
2019-05-13T14:39:59.363Z,54.60
2019-05-13T14:42:26.947Z,52.20
2019-05-13T14:44:56.999Z,53.00
2019-05-13T14:47:24.516Z,52.70
2019-05-13T14:49:52.367Z,52.70
2019-05-13T14:52:22.249Z,52.60
2019-05-13T14:54:51.416Z,51.90
2019-05-13T14:57:21.978Z,52.00
2019-05-13T14:59:51.430Z,52.40
2019-05-13T15:02:18.962Z,50.90
2019-05-13T15:04:46.496Z,51.00
2019-05-13T15:07:17.227Z,52.50
2019-05-13T15:09:44.752Z,53.40
2019-05-13T15:12:12.298Z,53.00
2019-05-13T15:14:42.740Z,52.70
2019-05-13T15:17:12.865Z,53.40
2019-05-13T15:19:41.909Z,54.00
2019-05-13T15:22:10.958Z,54.20
2019-05-13T15:24:38.516Z,52.20
2019-05-13T15:27:06.084Z,52.30
2019-05-13T15:29:33.682Z,53.70
2019-05-13T15:32:02.135Z,53.00
2019-05-13T15:34:31.780Z,52.30
2019-05-13T15:37:02.640Z,52.50
2019-05-13T15:39:31.599Z,53.00
2019-05-13T15:42:01.732Z,52.00
2019-05-13T15:44:32.434Z,52.10
2019-05-13T15:47:03.887Z,52.90
2019-05-13T15:49:28.989Z,52.50
2019-05-13T15:51:56.768Z,53.40
2019-05-13T15:54:24.315Z,52.10
2019-05-13T15:56:51.858Z,52.10
2019-05-13T15:59:23.133Z,51.30
2019-05-13T16:01:52.691Z,50.80
2019-05-13T16:04:21.357Z,51.30
2019-05-13T16:06:53.855Z,50.50
2019-05-13T16:09:21.580Z,51.80
2019-05-13T16:11:49.275Z,51.00
2019-05-13T16:14:16.901Z,50.20
2019-05-13T16:16:44.533Z,49.80
2019-05-13T16:19:12.342Z,49.40
2019-05-13T16:21:42.885Z,51.20
2019-05-13T16:24:15.549Z,51.60
2019-05-13T16:26:45.231Z,51.60
2019-05-13T16:29:16.207Z,51.90
2019-05-13T16:31:46.037Z,52.30
2019-05-13T16:34:17.259Z,52.60
2019-05-13T16:36:52.996Z,52.50
2019-05-13T16:39:25.283Z,50.40
2019-05-13T16:41:52.765Z,50.70
2019-05-13T16:44:22.950Z,52.60
2019-05-13T16:46:51.262Z,54.90
2019-05-13T16:49:21.245Z,55.00
2019-05-13T16:51:49.014Z,55.40
2019-05-13T16:54:16.547Z,55.50
2019-05-13T16:56:44.264Z,55.80
2019-05-13T16:59:11.836Z,56.10
2019-05-13T17:01:41.810Z,55.70
2019-05-13T17:04:09.031Z,56.50
2019-05-13T17:06:41.494Z,56.70
2019-05-13T17:09:11.315Z,55.70
2019-05-13T17:11:38.502Z,54.70
2019-05-13T17:14:06.107Z,55.50
2019-05-13T17:16:33.872Z,55.50
2019-05-13T17:19:01.494Z,54.70
2019-05-13T17:21:29.005Z,54.40
2019-05-13T17:23:56.612Z,54.50
2019-05-13T17:26:28.785Z,54.70
2019-05-13T17:28:56.393Z,55.10
2019-05-13T17:31:23.949Z,55.10
2019-05-13T17:33:52.015Z,54.70
2019-05-13T17:36:21.724Z,55.10
2019-05-13T17:38:49.103Z,55.60
2019-05-13T17:41:25.584Z,55.70
2019-05-13T17:43:53.386Z,55.50
2019-05-13T17:46:21.856Z,55.50
2019-05-13T17:48:51.886Z,56.00
2019-05-13T17:51:19.291Z,56.10
2019-05-13T17:53:46.853Z,55.90
2019-05-13T17:56:14.487Z,56.10
2019-05-13T17:58:42.185Z,57.10
2019-05-13T18:01:11.898Z,57.60
2019-05-13T18:03:41.138Z,57.80
2019-05-13T18:06:11.450Z,58.50
2019-05-13T18:08:41.079Z,57.70
2019-05-13T18:11:08.547Z,57.80
2019-05-13T18:13:36.065Z,58.30
2019-05-13T18:16:03.588Z,57.90
2019-05-13T18:18:40.335Z,58.60
2019-05-13T18:21:01.453Z,58.30
2019-05-13T18:23:29.147Z,58.80
2019-05-13T18:26:02.092Z,58.70
2019-05-13T18:28:34.685Z,59.00
2019-05-13T18:31:05.040Z,58.60
2019-05-13T18:33:32.582Z,59.00
2019-05-13T18:36:01.844Z,60.40
2019-05-13T18:38:31.289Z,60.40
2019-05-13T18:40:58.883Z,61.90
2019-05-13T18:43:26.489Z,63.50
2019-05-13T18:45:55.055Z,65.30
2019-05-13T18:48:22.819Z,67.40
2019-05-13T18:50:52.425Z,69.60
2019-05-13T18:53:21.533Z,69.70
2019-05-13T18:55:52.212Z,70.40
2019-05-13T18:58:19.447Z,71.50
2019-05-13T19:00:46.984Z,72.00
2019-05-13T19:03:14.767Z,72.60
2019-05-13T19:05:42.365Z,73.20
2019-05-13T19:08:12.237Z,73.80
2019-05-13T19:10:41.365Z,74.80
2019-05-13T19:13:09.189Z,75.80
2019-05-13T19:15:36.759Z,76.10
2019-05-13T19:18:05.213Z,76.30
2019-05-13T19:20:32.825Z,76.80
2019-05-13T19:23:01.181Z,77.50
2019-05-13T19:25:31.253Z,77.90
2019-05-13T19:27:58.235Z,78.40
2019-05-13T19:30:25.823Z,79.30
2019-05-13T19:32:53.391Z,79.50
2019-05-13T19:35:21.798Z,80.20
2019-05-13T19:37:51.579Z,80.60
2019-05-13T19:40:21.977Z,81.50
2019-05-13T19:42:50.956Z,82.30
2019-05-13T19:45:18.455Z,82.80
2019-05-13T19:47:46.058Z,83.50
2019-05-13T19:50:13.618Z,83.90
2019-05-13T19:52:42.508Z,84.70
2019-05-13T19:55:12.061Z,85.70
2019-05-13T19:57:42.485Z,86.10
2019-05-13T20:00:14.007Z,86.20
2019-05-13T20:02:42.057Z,87.10
2019-05-13T20:05:09.418Z,88.10
2019-05-13T20:07:36.992Z,88.90
2019-05-13T20:10:04.873Z,89.50
2019-05-13T20:12:32.476Z,90.10
2019-05-13T20:15:01.456Z,90.40
2019-05-13T20:17:29.236Z,90.80
2019-05-13T20:19:56.866Z,91.30
2019-05-13T20:22:24.451Z,91.70
2019-05-13T20:24:52.011Z,92.10
2019-05-13T20:27:21.025Z,92.70
2019-05-13T20:29:51.051Z,93.00
2019-05-13T20:32:18.050Z,93.40
2019-05-13T20:34:45.569Z,93.90
2019-05-13T20:37:15.156Z,94.30
2019-05-13T20:39:42.720Z,94.80
2019-05-13T20:42:12.286Z,95.30
2019-05-13T20:44:41.818Z,95.90
2019-05-13T20:47:09.149Z,96.40
2019-05-13T20:49:36.664Z,96.90
2019-05-13T20:52:04.645Z,97.50
2019-05-13T20:54:32.202Z,98.20
2019-05-13T20:57:02.042Z,98.90
2019-05-13T20:59:31.990Z,99.60
2019-05-13T21:02:04.006Z,99.90
2019-05-13T21:04:32.249Z,99.90
2019-05-13T21:07:02.093Z,99.90
2019-05-13T21:09:31.533Z,99.90
2019-05-13T21:12:01.487Z,99.90
2019-05-13T21:14:28.470Z,99.90
2019-05-13T21:16:56.085Z,99.90
2019-05-13T21:19:23.624Z,99.90
2019-05-13T21:21:51.255Z,99.90
2019-05-13T21:24:21.344Z,99.90
2019-05-13T21:26:51.105Z,99.90
2019-05-13T21:29:18.430Z,99.90
2019-05-13T21:31:45.962Z,99.90
2019-05-13T21:34:13.511Z,99.90
2019-05-13T21:36:41.306Z,99.90
2019-05-13T21:39:09.162Z,99.90
2019-05-13T21:41:36.722Z,99.90
2019-05-13T21:44:06.852Z,99.90
2019-05-13T21:46:40.937Z,99.90
2019-05-13T21:49:07.964Z,99.90
2019-05-13T21:51:35.537Z,99.90
2019-05-13T21:54:03.044Z,99.90
2019-05-13T21:56:31.835Z,99.90
2019-05-13T21:59:01.431Z,99.90
2019-05-13T22:01:31.336Z,99.90
2019-05-13T22:03:58.147Z,99.90
2019-05-13T22:06:26.920Z,99.90
2019-05-13T22:08:54.447Z,99.90
2019-05-13T22:11:22.319Z,99.90
2019-05-13T22:13:52.006Z,99.90
2019-05-13T22:16:21.489Z,99.90
2019-05-13T22:18:49.020Z,99.90
2019-05-13T22:21:44.199Z,99.90
2019-05-13T22:24:11.854Z,99.90
2019-05-13T22:26:41.727Z,99.90
2019-05-13T22:29:08.707Z,99.90
2019-05-13T22:31:36.240Z,99.90
2019-05-13T22:34:03.800Z,99.90
2019-05-13T22:36:31.772Z,99.90
2019-05-13T22:39:01.967Z,99.90
2019-05-13T22:41:31.193Z,99.90
2019-05-13T22:43:59.037Z,99.90
2019-05-13T22:46:27.586Z,99.90
2019-05-13T22:48:55.163Z,99.90
2019-05-13T22:51:22.673Z,99.90
2019-05-13T22:53:50.193Z,99.90
2019-05-13T22:56:17.758Z,99.90
2019-05-13T22:58:47.948Z,99.90
2019-05-13T23:01:15.471Z,99.90
2019-05-13T23:03:42.985Z,99.90
2019-05-13T23:06:12.103Z,99.90
2019-05-13T23:08:39.656Z,99.90
2019-05-13T23:11:07.189Z,99.90
2019-05-13T23:13:34.615Z,99.90
2019-05-13T23:16:02.594Z,99.90
2019-05-13T23:18:31.726Z,99.90
2019-05-13T23:20:59.315Z,99.90
2019-05-13T23:23:26.825Z,99.90
2019-05-13T23:25:56.845Z,99.90
2019-05-13T23:28:23.653Z,99.90
2019-05-13T23:30:52.039Z,99.90
2019-05-13T23:33:21.878Z,99.90
2019-05-13T23:35:50.972Z,99.90
2019-05-13T23:38:18.459Z,99.90
2019-05-13T23:40:45.949Z,99.90
2019-05-13T23:43:13.453Z,99.90
2019-05-13T23:45:41.711Z,99.90
2019-05-13T23:48:09.278Z,99.90
2019-05-13T23:50:36.794Z,99.90
2019-05-13T23:53:04.423Z,99.90
2019-05-13T23:55:32.283Z,99.90
2019-05-13T23:58:01.687Z,99.90
